createdAt,value
2023-05-19T00:01:57.301Z,8.87
2023-05-19T00:04:02.956Z,8.83
2023-05-19T00:06:05.050Z,8.82
2023-05-19T00:08:10.357Z,8.82
2023-05-19T00:10:12.485Z,8.78
2023-05-19T00:12:14.517Z,8.77
2023-05-19T00:14:16.381Z,8.78
2023-05-19T00:16:18.359Z,8.74
2023-05-19T00:18:20.671Z,8.71
2023-05-19T00:20:22.497Z,8.67
2023-05-19T00:22:24.115Z,8.64
2023-05-19T00:24:25.840Z,8.64
2023-05-19T00:26:27.457Z,8.61
2023-05-19T00:28:29.047Z,8.58
2023-05-19T00:30:31.064Z,8.56
2023-05-19T00:32:33.468Z,8.53
2023-05-19T00:34:35.047Z,8.50
2023-05-19T00:36:36.682Z,8.48
2023-05-19T00:38:38.901Z,8.45
2023-05-19T00:40:40.685Z,8.41
2023-05-19T00:42:42.455Z,8.38
2023-05-19T00:44:44.032Z,8.34
2023-05-19T00:46:45.642Z,8.31
2023-05-19T00:48:47.264Z,8.28
2023-05-19T00:50:50.860Z,8.25
2023-05-19T00:52:52.457Z,8.23
2023-05-19T00:54:55.413Z,8.20
2023-05-19T00:56:58.447Z,8.17
2023-05-19T00:59:00.901Z,8.16
2023-05-19T01:01:04.249Z,8.11
2023-05-19T01:03:13.106Z,8.07
2023-05-19T01:05:14.903Z,8.01
2023-05-19T01:07:16.629Z,7.98
2023-05-19T01:09:18.462Z,7.95
2023-05-19T01:11:20.064Z,7.92
2023-05-19T01:13:21.777Z,7.88
2023-05-19T01:15:26.868Z,7.85
2023-05-19T01:17:59.267Z,7.80
2023-05-19T01:20:29.283Z,7.76
2023-05-19T01:22:55.031Z,7.75
2023-05-19T01:25:20.929Z,7.72
2023-05-19T01:27:34.662Z,7.69
2023-05-19T01:29:42.017Z,7.64
2023-05-19T01:31:47.949Z,7.60
2023-05-19T01:33:51.822Z,7.58
2023-05-19T01:35:55.606Z,7.56
2023-05-19T01:37:59.771Z,7.55
2023-05-19T01:40:01.840Z,7.53
2023-05-19T01:42:04.304Z,7.51
2023-05-19T01:44:06.416Z,7.54
2023-05-19T01:46:08.462Z,7.53
2023-05-19T01:48:11.295Z,7.51
2023-05-19T01:50:13.183Z,7.53
2023-05-19T01:52:14.801Z,7.53
2023-05-19T01:54:16.357Z,7.55
2023-05-19T01:56:27.589Z,7.56
2023-05-19T01:58:47.040Z,7.54
2023-05-19T02:00:51.822Z,7.51
2023-05-19T02:03:05.733Z,7.50
2023-05-19T02:05:32.881Z,7.46
2023-05-19T02:07:44.472Z,7.39
2023-05-19T02:10:03.863Z,7.33
2023-05-19T02:12:05.496Z,7.26
2023-05-19T02:14:21.137Z,7.23
2023-05-19T02:16:28.677Z,7.20
2023-05-19T02:18:32.123Z,7.12
2023-05-19T02:20:34.051Z,7.05
2023-05-19T02:22:36.258Z,7.00
2023-05-19T02:24:37.938Z,6.99
2023-05-19T02:26:39.539Z,6.97
2023-05-19T02:28:41.068Z,6.92
2023-05-19T02:30:42.608Z,6.88
2023-05-19T02:32:46.820Z,6.85
2023-05-19T02:34:48.503Z,6.78
2023-05-19T02:36:50.645Z,6.76
2023-05-19T02:38:52.406Z,6.73
2023-05-19T02:40:54.040Z,6.65
2023-05-19T02:42:55.775Z,6.62
2023-05-19T02:44:57.506Z,6.60
2023-05-19T02:46:59.204Z,6.54
2023-05-19T02:49:00.844Z,6.53
2023-05-19T02:51:02.445Z,6.52
2023-05-19T02:53:04.448Z,6.49
2023-05-19T02:55:06.392Z,6.46
2023-05-19T02:57:08.059Z,6.40
2023-05-19T02:59:09.664Z,6.34
2023-05-19T03:01:11.094Z,6.31
2023-05-19T03:03:13.947Z,6.30
2023-05-19T03:05:15.761Z,6.26
2023-05-19T03:07:17.714Z,6.25
2023-05-19T03:09:19.348Z,6.24
2023-05-19T03:11:21.290Z,6.23
2023-05-19T03:13:22.867Z,6.22
2023-05-19T03:15:24.491Z,6.20
2023-05-19T03:17:26.267Z,6.17
2023-05-19T03:19:27.978Z,6.16
2023-05-19T03:21:30.465Z,6.15
2023-05-19T03:23:32.059Z,6.12
2023-05-19T03:25:33.627Z,6.08
2023-05-19T03:27:35.417Z,6.08
2023-05-19T03:29:37.265Z,6.06
2023-05-19T03:31:38.849Z,6.04
2023-05-19T03:33:40.569Z,5.99
2023-05-19T03:35:42.198Z,5.98
2023-05-19T03:37:43.758Z,5.96
2023-05-19T03:39:45.370Z,5.93
2023-05-19T03:41:47.057Z,5.92
2023-05-19T03:43:48.597Z,5.87
2023-05-19T03:45:50.292Z,5.89
2023-05-19T03:47:51.948Z,5.89
2023-05-19T03:49:53.567Z,5.87
2023-05-19T03:51:55.111Z,5.86
2023-05-19T03:53:59.656Z,5.86
2023-05-19T03:56:01.228Z,5.86
2023-05-19T03:58:03.397Z,5.82
2023-05-19T04:00:06.142Z,5.85
2023-05-19T04:02:08.300Z,5.83
2023-05-19T04:04:10.158Z,5.84
2023-05-19T04:06:12.941Z,5.85
2023-05-19T04:08:14.499Z,5.89
2023-05-19T04:10:16.110Z,5.90
2023-05-19T04:12:17.703Z,5.90
2023-05-19T04:14:20.298Z,5.95
2023-05-19T04:16:22.117Z,5.97
2023-05-19T04:18:23.784Z,5.99
2023-05-19T04:20:25.554Z,6.00
2023-05-19T04:22:27.149Z,6.05
2023-05-19T04:24:31.495Z,6.10
2023-05-19T04:26:34.468Z,6.14
2023-05-19T04:28:39.087Z,6.19
2023-05-19T04:30:42.548Z,6.24
2023-05-19T04:32:44.117Z,6.27
2023-05-19T04:34:46.143Z,6.31
2023-05-19T04:36:48.225Z,6.32
2023-05-19T04:38:54.689Z,6.36
2023-05-19T04:40:56.466Z,6.41
2023-05-19T04:42:58.199Z,6.47
2023-05-19T04:44:59.791Z,6.53
2023-05-19T04:47:01.429Z,6.58
2023-05-19T04:49:03.241Z,6.63
2023-05-19T04:51:05.117Z,6.68
2023-05-19T04:53:07.027Z,6.73
2023-05-19T04:55:11.311Z,6.77
2023-05-19T04:57:12.951Z,6.80
2023-05-19T04:59:14.573Z,6.81
2023-05-19T05:01:16.285Z,6.85
2023-05-19T05:03:18.753Z,6.90
2023-05-19T05:05:20.357Z,6.93
2023-05-19T05:07:22.787Z,7.03
2023-05-19T05:09:24.408Z,7.06
2023-05-19T05:11:26.759Z,7.15
2023-05-19T05:13:28.618Z,7.18
2023-05-19T05:15:30.499Z,7.20
2023-05-19T05:17:32.350Z,7.31
2023-05-19T05:19:34.521Z,7.39
2023-05-19T05:21:36.482Z,7.41
2023-05-19T05:23:38.321Z,7.49
2023-05-19T05:25:40.973Z,7.55
2023-05-19T05:27:42.645Z,7.60
2023-05-19T05:29:44.319Z,7.68
2023-05-19T05:31:45.851Z,7.74
2023-05-19T05:33:47.558Z,7.81
2023-05-19T05:35:50.573Z,7.88
2023-05-19T05:37:52.143Z,7.96
2023-05-19T05:39:53.680Z,8.03
2023-05-19T05:41:55.515Z,8.09
2023-05-19T05:43:57.112Z,8.16
2023-05-19T05:45:58.848Z,8.23
2023-05-19T05:48:00.921Z,8.33
2023-05-19T05:50:02.903Z,8.39
2023-05-19T05:52:06.529Z,8.46
2023-05-19T05:54:12.147Z,8.56
2023-05-19T05:56:14.395Z,8.66
2023-05-19T05:58:17.035Z,8.74
2023-05-19T06:00:19.320Z,8.82
2023-05-19T06:02:21.837Z,8.92
2023-05-19T06:04:23.500Z,9.00
2023-05-19T06:06:25.089Z,9.06
2023-05-19T06:08:26.690Z,9.16
2023-05-19T06:10:29.060Z,9.25
2023-05-19T06:12:30.723Z,9.32
2023-05-19T06:14:32.316Z,9.40
2023-05-19T06:16:33.981Z,9.50
2023-05-19T06:18:35.851Z,9.59
2023-05-19T06:20:41.412Z,9.63
2023-05-19T06:22:43.069Z,9.75
2023-05-19T06:24:44.683Z,9.84
2023-05-19T06:26:46.308Z,9.92
2023-05-19T06:28:47.873Z,10.04
2023-05-19T06:30:49.507Z,10.17
2023-05-19T06:32:51.122Z,10.26
2023-05-19T06:34:55.687Z,10.38
2023-05-19T06:36:57.260Z,10.45
2023-05-19T06:39:00.159Z,10.54
2023-05-19T06:41:03.521Z,10.62
2023-05-19T06:43:05.133Z,10.73
2023-05-19T06:45:07.381Z,10.85
2023-05-19T06:47:09.059Z,10.90
2023-05-19T06:49:11.312Z,10.98
2023-05-19T06:51:12.973Z,11.07
2023-05-19T06:53:14.549Z,11.20
2023-05-19T06:55:16.168Z,11.31
2023-05-19T06:57:17.762Z,11.38
2023-05-19T06:59:21.882Z,11.46
2023-05-19T07:01:23.559Z,11.54
2023-05-19T07:03:25.273Z,11.60
2023-05-19T07:05:27.070Z,11.70
2023-05-19T07:07:28.794Z,11.73
2023-05-19T07:09:30.360Z,11.84
2023-05-19T07:11:31.963Z,11.90
2023-05-19T07:13:33.637Z,12.06
2023-05-19T07:15:35.229Z,12.16
2023-05-19T07:17:36.876Z,12.22
2023-05-19T07:19:38.678Z,12.32
2023-05-19T07:21:40.284Z,12.44
2023-05-19T07:23:41.894Z,12.53
2023-05-19T07:25:46.438Z,12.64
2023-05-19T07:27:48.071Z,12.74
2023-05-19T07:29:49.617Z,12.78
2023-05-19T07:31:57.928Z,12.91
2023-05-19T07:33:59.753Z,12.99
2023-05-19T07:36:01.487Z,12.92
2023-05-19T07:38:03.916Z,13.01
2023-05-19T07:40:09.384Z,13.06
2023-05-19T07:42:10.920Z,13.24
2023-05-19T07:44:12.504Z,13.30
2023-05-19T07:46:14.175Z,13.36
2023-05-19T07:48:18.705Z,13.34
2023-05-19T07:50:20.634Z,13.46
2023-05-19T07:52:22.223Z,13.49
2023-05-19T07:54:23.772Z,13.57
2023-05-19T07:56:25.436Z,13.67
2023-05-19T07:58:27.080Z,13.72
2023-05-19T08:00:28.783Z,13.76
2023-05-19T08:02:30.514Z,13.89
2023-05-19T08:04:32.814Z,13.97
2023-05-19T08:06:35.219Z,14.06
2023-05-19T08:08:36.922Z,14.10
2023-05-19T08:10:38.547Z,14.15
2023-05-19T08:12:40.383Z,14.24
2023-05-19T08:14:41.995Z,14.27
2023-05-19T08:16:45.078Z,14.36
2023-05-19T08:18:46.694Z,14.32
2023-05-19T08:20:48.374Z,14.36
2023-05-19T08:22:50.261Z,14.40
2023-05-19T08:24:51.890Z,14.56
2023-05-19T08:26:53.655Z,14.70
2023-05-19T08:28:55.468Z,14.71
2023-05-19T08:30:57.141Z,14.75
2023-05-19T08:33:02.324Z,14.81
2023-05-19T08:35:04.382Z,14.92
2023-05-19T08:37:06.005Z,15.00
2023-05-19T08:39:07.659Z,15.02
2023-05-19T08:41:09.327Z,14.89
2023-05-19T08:43:14.045Z,15.10
2023-05-19T08:45:15.863Z,15.13
2023-05-19T08:47:17.932Z,15.23
2023-05-19T08:49:25.698Z,15.35
2023-05-19T08:51:36.761Z,15.27
2023-05-19T08:53:44.061Z,15.36
2023-05-19T08:56:11.006Z,15.37
2023-05-19T08:58:13.068Z,15.34
2023-05-19T09:00:18.221Z,15.39
2023-05-19T09:02:20.561Z,15.53
2023-05-19T09:04:22.555Z,15.57
2023-05-19T09:06:25.639Z,15.72
2023-05-19T09:08:27.700Z,15.82
2023-05-19T09:10:29.541Z,15.95
2023-05-19T09:12:31.609Z,15.97
2023-05-19T09:14:33.215Z,16.09
2023-05-19T09:16:34.894Z,15.94
2023-05-19T09:18:40.069Z,15.93
2023-05-19T09:20:43.749Z,16.04
2023-05-19T09:22:47.578Z,16.16
2023-05-19T09:24:49.501Z,16.23
2023-05-19T09:26:51.114Z,16.22
2023-05-19T09:28:58.068Z,15.94
2023-05-19T09:31:04.656Z,15.97
2023-05-19T09:33:09.924Z,16.16
2023-05-19T09:35:13.196Z,16.27
2023-05-19T09:37:14.942Z,16.39
2023-05-19T09:39:17.433Z,16.35
2023-05-19T09:41:19.781Z,16.30
2023-05-19T09:43:21.660Z,16.45
2023-05-19T09:45:23.265Z,16.52
2023-05-19T09:47:24.992Z,16.65
2023-05-19T09:49:32.696Z,16.75
2023-05-19T09:51:37.555Z,16.68
2023-05-19T09:53:39.515Z,16.85
2023-05-19T09:55:42.827Z,16.84
2023-05-19T09:57:45.386Z,16.81
2023-05-19T09:59:47.412Z,16.70
2023-05-19T10:01:49.314Z,16.94
2023-05-19T10:03:52.582Z,16.88
2023-05-19T10:05:55.004Z,17.05
2023-05-19T10:07:56.945Z,17.04
2023-05-19T10:10:00.097Z,17.04
2023-05-19T10:12:03.397Z,17.02
2023-05-19T10:14:05.510Z,16.94
2023-05-19T10:16:09.509Z,17.25
2023-05-19T10:18:12.265Z,17.38
2023-05-19T10:20:17.954Z,17.45
2023-05-19T10:22:19.504Z,17.55
2023-05-19T10:24:21.708Z,17.59
2023-05-19T10:26:24.509Z,17.60
2023-05-19T10:28:34.402Z,17.74
2023-05-19T10:30:46.474Z,17.90
2023-05-19T10:32:52.095Z,17.99
2023-05-19T10:35:05.889Z,17.95
2023-05-19T10:37:24.953Z,17.78
2023-05-19T10:39:37.680Z,17.91
2023-05-19T10:41:53.801Z,17.84
2023-05-19T10:44:35.079Z,17.72
2023-05-19T10:46:37.040Z,18.16
2023-05-19T10:48:38.609Z,18.29
2023-05-19T10:50:40.279Z,18.19
2023-05-19T10:52:42.005Z,18.42
2023-05-19T10:54:47.240Z,18.44
2023-05-19T10:56:49.023Z,18.41
2023-05-19T10:58:50.874Z,18.61
2023-05-19T11:01:00.938Z,18.21
2023-05-19T11:03:18.839Z,18.35
2023-05-19T11:05:28.798Z,18.60
2023-05-19T11:07:30.876Z,18.41
2023-05-19T11:09:40.066Z,18.57
2023-05-19T11:11:49.881Z,18.87
2023-05-19T11:13:53.111Z,18.60
2023-05-19T11:15:56.302Z,18.89
2023-05-19T11:18:01.349Z,18.88
2023-05-19T11:20:04.985Z,18.76
2023-05-19T11:22:10.900Z,19.01
2023-05-19T11:24:39.963Z,19.10
2023-05-19T11:26:45.631Z,19.24
2023-05-19T11:28:48.200Z,19.25
2023-05-19T11:30:50.816Z,19.21
2023-05-19T11:32:54.256Z,19.17
2023-05-19T11:34:57.277Z,19.53
2023-05-19T11:36:59.384Z,19.73
2023-05-19T11:39:02.543Z,19.80
2023-05-19T11:41:04.424Z,19.85
2023-05-19T11:43:06.260Z,19.77
2023-05-19T11:45:08.549Z,19.50
2023-05-19T11:47:10.727Z,19.45
2023-05-19T11:49:12.377Z,19.72
2023-05-19T11:51:14.109Z,19.70
2023-05-19T11:53:22.184Z,19.41
2023-05-19T11:55:23.807Z,19.34
2023-05-19T11:57:25.550Z,19.45
2023-05-19T11:59:36.061Z,19.67
2023-05-19T12:01:38.065Z,20.01
2023-05-19T12:03:39.906Z,20.01
2023-05-19T12:05:47.836Z,20.11
2023-05-19T12:07:51.579Z,20.21
2023-05-19T12:09:55.355Z,20.06
2023-05-19T12:11:57.135Z,19.76
2023-05-19T12:13:59.452Z,19.87
2023-05-19T12:16:01.890Z,19.68
2023-05-19T12:18:03.884Z,19.86
2023-05-19T12:20:06.717Z,20.04
2023-05-19T12:22:08.704Z,20.05
2023-05-19T12:24:11.036Z,19.69
2023-05-19T12:26:13.128Z,19.91
2023-05-19T12:28:16.411Z,19.84
2023-05-19T12:30:18.232Z,20.22
2023-05-19T12:32:26.978Z,20.32
2023-05-19T12:34:28.738Z,20.35
2023-05-19T12:36:31.993Z,20.32
2023-05-19T12:38:37.374Z,20.47
2023-05-19T12:40:42.255Z,20.38
2023-05-19T12:42:48.803Z,20.46
2023-05-19T12:44:52.584Z,20.85
2023-05-19T12:46:54.357Z,20.61
2023-05-19T12:48:59.618Z,20.67
2023-05-19T12:51:01.255Z,20.88
2023-05-19T12:53:02.907Z,21.03
2023-05-19T12:55:06.953Z,20.90
2023-05-19T12:57:10.997Z,20.84
2023-05-19T12:59:54.851Z,21.08
2023-05-19T13:01:43.091Z,21.20
2023-05-19T13:03:46.002Z,20.69
2023-05-19T13:05:49.805Z,21.23
2023-05-19T13:08:11.743Z,21.25
2023-05-19T13:10:13.477Z,21.21
2023-05-19T13:12:15.036Z,21.23
2023-05-19T13:14:18.714Z,21.30
2023-05-19T13:16:20.367Z,21.31
2023-05-19T13:18:22.010Z,21.53
2023-05-19T13:20:26.301Z,21.67
2023-05-19T13:22:29.242Z,21.66
2023-05-19T13:24:30.894Z,21.52
2023-05-19T13:26:32.487Z,21.57
2023-05-19T13:28:34.870Z,21.57
2023-05-19T13:30:39.010Z,21.32
2023-05-19T13:32:40.800Z,21.86
2023-05-19T13:34:42.362Z,21.80
2023-05-19T13:36:48.132Z,21.38
2023-05-19T13:38:49.864Z,21.64
2023-05-19T13:40:51.448Z,21.39
2023-05-19T13:42:53.279Z,21.39
2023-05-19T13:44:56.406Z,21.09
2023-05-19T13:46:58.142Z,21.56
2023-05-19T13:48:59.785Z,21.56
2023-05-19T13:51:01.404Z,21.98
2023-05-19T13:53:03.738Z,21.66
2023-05-19T13:55:07.075Z,21.54
2023-05-19T13:57:08.754Z,21.77
2023-05-19T13:59:10.372Z,21.71
2023-05-19T14:01:15.123Z,21.72
2023-05-19T14:03:19.608Z,21.55
2023-05-19T14:05:21.389Z,21.66
2023-05-19T14:07:23.017Z,21.85
2023-05-19T14:09:24.730Z,22.02
2023-05-19T14:11:26.410Z,21.99
2023-05-19T14:13:34.260Z,22.01
2023-05-19T14:15:38.214Z,22.17
2023-05-19T14:17:40.141Z,22.23
2023-05-19T14:19:42.101Z,22.31
2023-05-19T14:21:43.700Z,22.74
2023-05-19T14:23:45.372Z,22.66
2023-05-19T14:25:47.042Z,22.56
2023-05-19T14:27:48.621Z,23.08
2023-05-19T14:29:50.391Z,23.03
2023-05-19T14:31:52.558Z,23.20
2023-05-19T14:33:57.211Z,22.85
2023-05-19T14:36:00.301Z,23.21
2023-05-19T14:38:01.858Z,23.12
2023-05-19T14:42:06.107Z,23.59
2023-05-19T14:44:07.651Z,23.60
2023-05-19T14:46:09.362Z,24.17
2023-05-19T14:48:11.999Z,26.63
2023-05-19T14:50:13.638Z,31.93
2023-05-19T14:52:15.372Z,35.49
2023-05-19T14:54:17.060Z,36.04
2023-05-19T14:56:18.614Z,37.72
2023-05-19T14:58:28.851Z,37.28
2023-05-19T15:00:31.116Z,37.14
2023-05-19T15:02:32.822Z,37.91
2023-05-19T15:04:36.841Z,38.91
2023-05-19T15:06:38.529Z,40.42
2023-05-19T15:08:41.414Z,39.86
2023-05-19T15:10:43.036Z,40.49
2023-05-19T15:12:44.648Z,41.04
2023-05-19T15:14:46.745Z,40.65
2023-05-19T15:16:48.393Z,41.78
2023-05-19T15:18:51.577Z,42.90
2023-05-19T15:20:53.241Z,42.19
2023-05-19T15:22:54.797Z,42.33
2023-05-19T15:24:56.388Z,40.97
2023-05-19T15:26:58.019Z,42.14
2023-05-19T15:28:59.616Z,42.81
2023-05-19T15:31:01.358Z,43.80
2023-05-19T15:33:03.035Z,43.51
2023-05-19T15:35:04.983Z,45.45
2023-05-19T15:37:06.524Z,43.41
2023-05-19T15:39:08.126Z,44.36
2023-05-19T15:41:10.214Z,43.36
2023-05-19T15:43:11.826Z,44.25
2023-05-19T15:45:13.421Z,44.78
2023-05-19T15:47:15.002Z,43.22
2023-05-19T15:49:17.980Z,44.36
2023-05-19T15:51:19.575Z,44.50
2023-05-19T15:53:21.253Z,43.82
2023-05-19T15:55:22.840Z,45.08
2023-05-19T15:57:24.942Z,44.85
2023-05-19T15:59:26.559Z,45.36
2023-05-19T16:01:28.530Z,45.74
2023-05-19T16:03:30.494Z,45.22
2023-05-19T16:05:32.231Z,45.93
2023-05-19T16:07:33.848Z,45.01
2023-05-19T16:09:35.416Z,43.70
2023-05-19T16:11:37.052Z,44.97
2023-05-19T16:13:38.635Z,43.29
2023-05-19T16:15:40.594Z,44.56
2023-05-19T16:17:42.558Z,45.16
2023-05-19T16:19:44.230Z,42.19
2023-05-19T16:21:45.883Z,44.44
2023-05-19T16:23:47.479Z,41.13
2023-05-19T16:25:49.089Z,40.67
2023-05-19T16:27:51.507Z,43.01
2023-05-19T16:29:53.234Z,44.84
2023-05-19T16:31:54.842Z,44.01
2023-05-19T16:33:56.544Z,42.89
2023-05-19T16:35:59.883Z,42.14
2023-05-19T16:38:01.422Z,41.78
2023-05-19T16:40:03.236Z,43.08
2023-05-19T16:42:05.217Z,43.43
2023-05-19T16:44:06.774Z,44.08
2023-05-19T16:46:09.860Z,43.41
2023-05-19T16:48:11.581Z,42.80
2023-05-19T16:50:13.194Z,42.82
2023-05-19T16:52:14.844Z,43.27
2023-05-19T16:54:16.417Z,43.44
2023-05-19T16:56:17.972Z,43.31
2023-05-19T16:58:19.623Z,41.89
2023-05-19T17:00:21.249Z,41.93
2023-05-19T17:02:22.859Z,41.94
2023-05-19T17:04:24.492Z,41.82
2023-05-19T17:06:26.107Z,42.93
2023-05-19T17:08:27.987Z,40.33
2023-05-19T17:10:29.516Z,41.63
2023-05-19T17:12:31.149Z,40.00
2023-05-19T17:14:32.685Z,40.39
2023-05-19T17:16:35.780Z,38.91
2023-05-19T17:18:37.535Z,39.24
2023-05-19T17:20:39.199Z,39.55
2023-05-19T17:22:41.123Z,35.13
2023-05-19T17:24:42.785Z,34.06
2023-05-19T17:26:44.572Z,31.96
2023-05-19T17:28:46.136Z,29.85
2023-05-19T17:30:47.953Z,29.07
2023-05-19T17:32:49.840Z,28.33
2023-05-19T17:34:51.687Z,27.79
2023-05-19T17:36:53.302Z,26.25
2023-05-19T17:38:54.948Z,25.32
2023-05-19T17:41:04.575Z,25.34
2023-05-19T17:43:08.171Z,25.78
2023-05-19T17:45:12.398Z,25.32
2023-05-19T17:47:14.099Z,24.49
2023-05-19T17:49:15.776Z,24.30
2023-05-19T17:51:17.508Z,23.55
2023-05-19T17:53:19.432Z,23.43
2023-05-19T17:55:21.382Z,23.45
2023-05-19T17:57:25.880Z,23.39
2023-05-19T17:59:27.692Z,23.19
2023-05-19T18:01:29.622Z,22.37
2023-05-19T18:03:31.795Z,22.67
2023-05-19T18:05:34.210Z,22.53
2023-05-19T18:07:39.563Z,22.26
2023-05-19T18:09:47.756Z,22.22
2023-05-19T18:11:49.318Z,21.70
2023-05-19T18:13:50.891Z,21.80
2023-05-19T18:15:52.901Z,21.80
2023-05-19T18:17:54.603Z,21.40
2023-05-19T18:19:56.256Z,21.08
2023-05-19T18:21:57.857Z,20.79
2023-05-19T18:24:02.963Z,20.94
2023-05-19T18:26:04.553Z,20.21
2023-05-19T18:28:06.232Z,20.20
2023-05-19T18:30:08.177Z,20.49
2023-05-19T18:32:10.006Z,20.41
2023-05-19T18:34:14.019Z,20.19
2023-05-19T18:36:16.580Z,20.05
2023-05-19T18:38:18.282Z,19.95
2023-05-19T18:40:19.850Z,19.84
2023-05-19T18:42:21.957Z,19.59
2023-05-19T18:44:23.516Z,19.47
2023-05-19T18:46:25.293Z,19.50
2023-05-19T18:48:27.151Z,18.94
2023-05-19T18:50:28.718Z,19.05
2023-05-19T18:52:31.325Z,19.10
2023-05-19T18:54:32.924Z,18.93
2023-05-19T18:56:35.438Z,18.81
2023-05-19T18:58:37.000Z,18.51
2023-05-19T19:00:38.628Z,18.50
2023-05-19T19:02:40.273Z,18.38
2023-05-19T19:04:41.967Z,18.27
2023-05-19T19:06:43.945Z,18.15
2023-05-19T19:08:45.725Z,17.96
2023-05-19T19:10:50.376Z,17.80
2023-05-19T19:12:52.005Z,17.83
2023-05-19T19:14:53.727Z,17.65
2023-05-19T19:16:55.342Z,17.54
2023-05-19T19:18:59.299Z,17.42
2023-05-19T19:21:02.553Z,17.38
2023-05-19T19:23:06.504Z,17.17
2023-05-19T19:25:08.595Z,17.06
2023-05-19T19:27:10.514Z,17.00
2023-05-19T19:29:12.164Z,17.01
2023-05-19T19:31:13.812Z,16.85
2023-05-19T19:33:15.551Z,16.77
2023-05-19T19:35:17.214Z,16.70
2023-05-19T19:37:19.092Z,16.44
2023-05-19T19:39:20.778Z,16.37
2023-05-19T19:41:22.368Z,16.35
2023-05-19T19:43:24.053Z,16.15
2023-05-19T19:45:25.694Z,16.18
2023-05-19T19:47:27.536Z,16.16
2023-05-19T19:49:29.138Z,16.11
2023-05-19T19:51:31.627Z,16.02
2023-05-19T19:53:33.247Z,15.84
2023-05-19T19:55:34.885Z,15.86
2023-05-19T19:57:36.886Z,15.72
2023-05-19T19:59:38.473Z,15.74
2023-05-19T20:01:40.174Z,15.70
2023-05-19T20:03:42.009Z,15.66
2023-05-19T20:05:44.022Z,15.62
2023-05-19T20:07:45.648Z,15.58
2023-05-19T20:09:49.535Z,15.46
2023-05-19T20:11:51.098Z,15.40
2023-05-19T20:13:53.253Z,15.35
2023-05-19T20:15:55.140Z,15.31
2023-05-19T20:17:56.794Z,15.24
2023-05-19T20:19:59.899Z,15.14
2023-05-19T20:22:01.452Z,15.14
2023-05-19T20:24:03.055Z,15.10
2023-05-19T20:28:11.587Z,14.90
2023-05-19T20:30:13.135Z,14.79
2023-05-19T20:32:14.740Z,14.73
2023-05-19T20:34:16.381Z,14.83
2023-05-19T20:36:17.984Z,14.82
2023-05-19T20:38:19.603Z,14.76
2023-05-19T20:40:21.175Z,14.74
2023-05-19T20:42:22.792Z,14.71
2023-05-19T20:44:24.372Z,14.68
2023-05-19T20:46:26.236Z,14.61
2023-05-19T20:48:27.882Z,14.62
2023-05-19T20:50:29.657Z,14.55
2023-05-19T20:52:32.252Z,14.49
2023-05-19T20:54:33.846Z,14.47
2023-05-19T20:56:35.414Z,14.48
2023-05-19T20:58:37.609Z,14.46
2023-05-19T21:00:39.295Z,14.49
2023-05-19T21:02:41.046Z,14.51
2023-05-19T21:04:42.661Z,14.55
2023-05-19T21:06:44.266Z,14.56
2023-05-19T21:08:46.043Z,14.58
2023-05-19T21:10:47.622Z,14.57
2023-05-19T21:12:49.401Z,14.58
2023-05-19T21:14:51.837Z,14.56
2023-05-19T21:16:56.750Z,14.58
2023-05-19T21:18:58.501Z,14.58
2023-05-19T21:21:02.996Z,14.55
2023-05-19T21:23:04.848Z,14.48
2023-05-19T21:25:06.810Z,14.51
2023-05-19T21:27:08.386Z,14.48
2023-05-19T21:29:10.177Z,14.46
2023-05-19T21:31:11.846Z,14.43
2023-05-19T21:33:13.498Z,14.38
2023-05-19T21:35:15.200Z,14.32
2023-05-19T21:37:17.675Z,14.30
2023-05-19T21:39:19.354Z,14.24
2023-05-19T21:41:21.698Z,14.19
2023-05-19T21:43:23.356Z,14.12
2023-05-19T21:45:24.922Z,14.04
2023-05-19T21:47:26.540Z,13.96
2023-05-19T21:49:28.486Z,13.93
2023-05-19T21:51:30.056Z,13.84
2023-05-19T21:53:32.760Z,13.84
2023-05-19T21:55:34.345Z,13.73
2023-05-19T21:57:35.905Z,13.66
2023-05-19T21:59:37.464Z,13.58
2023-05-19T22:01:42.358Z,13.57
2023-05-19T22:03:44.961Z,13.46
2023-05-19T22:05:53.384Z,13.43
2023-05-19T22:07:55.074Z,13.36
2023-05-19T22:09:56.808Z,13.31
2023-05-19T22:11:58.406Z,13.23
2023-05-19T22:14:00.193Z,13.21
2023-05-19T22:16:04.459Z,13.16
2023-05-19T22:18:06.911Z,13.09
2023-05-19T22:20:09.514Z,13.03
2023-05-19T22:22:14.155Z,13.01
2023-05-19T22:24:18.518Z,12.95
2023-05-19T22:26:20.112Z,12.92
2023-05-19T22:28:23.787Z,12.86
2023-05-19T22:30:25.738Z,12.81
2023-05-19T22:32:27.373Z,12.78
2023-05-19T22:34:31.618Z,12.74
2023-05-19T22:36:33.265Z,12.71
2023-05-19T22:38:34.896Z,12.69
2023-05-19T22:40:36.693Z,12.63
2023-05-19T22:42:38.438Z,12.59
2023-05-19T22:44:40.053Z,12.53
2023-05-19T22:46:44.168Z,12.53
2023-05-19T22:48:45.821Z,12.48
2023-05-19T22:50:47.429Z,12.42
2023-05-19T22:52:49.085Z,12.41
2023-05-19T22:54:50.679Z,12.35
2023-05-19T22:56:52.715Z,12.30
2023-05-19T22:58:54.258Z,12.27
2023-05-19T23:00:56.184Z,12.24
2023-05-19T23:02:58.465Z,12.17
2023-05-19T23:05:00.195Z,12.15
2023-05-19T23:07:02.183Z,12.11
2023-05-19T23:09:04.532Z,12.08
2023-05-19T23:11:06.175Z,12.03
2023-05-19T23:13:09.572Z,11.99
2023-05-19T23:15:11.394Z,11.95
2023-05-19T23:17:13.138Z,11.94
2023-05-19T23:19:15.443Z,11.92
2023-05-19T23:21:17.166Z,11.88
2023-05-19T23:23:18.998Z,11.87
2023-05-19T23:25:20.659Z,11.86
2023-05-19T23:27:22.261Z,11.83
2023-05-19T23:29:23.890Z,11.79
2023-05-19T23:31:25.558Z,11.77
2023-05-19T23:33:27.115Z,11.73
2023-05-19T23:35:28.668Z,11.71
2023-05-19T23:37:30.403Z,11.70
2023-05-19T23:39:32.053Z,11.66
2023-05-19T23:41:33.764Z,11.64
2023-05-19T23:43:35.512Z,11.61
2023-05-19T23:45:37.082Z,11.59
2023-05-19T23:47:38.829Z,11.56
2023-05-19T23:49:40.646Z,11.52
2023-05-19T23:51:42.370Z,11.51
2023-05-19T23:53:43.928Z,11.44
2023-05-19T23:55:46.052Z,11.44
2023-05-19T23:57:47.640Z,11.44
2023-05-19T23:59:49.225Z,11.42
